Currently 75°F in Murrieta, California, USA
75°F
75°F / 42°F
1 mph N
0.00"
Monday, February 24, 2020 12:41 PM PST

Murrieta, California Weather Summary
Last 36 Hours

Temperature Winds Hourly Humidity Dewpoint
Time Report Norm Report Norm Max Gusts Precip. Rpt. Norm Rpt. Norm Pressure
1,2Mon 12:41 PM  74.6°F  64°F  1 mph N  5 mph  10 mph  0.00"  40%  54%  48°F  46°F  30.16"
Mon 12:00 PM  71.7°F  63°F  1 mph N  4 mph  12 mph  0.00"  45%  56%  49°F  46°F  30.19"
Mon 11:00 AM  66.8°F  61°F  calm  3 mph  9 mph  0.00"  57%  61%  51°F  47°F  30.21"
Mon 10:00 AM  60.1°F  57°F  2 mph NW  3 mph  8 mph  0.00"  77%  70%  53°F  47°F  30.23"
Mon 09:00 AM  53.3°F  53°F  2 mph S  2 mph  5 mph  0.00"  96%  80%  52°F  47°F  30.25"
Mon 08:00 AM  46.3°F  48°F  3 mph NE  1 mph  5 mph  0.00"  97%  89%  45°F  45°F  30.26"
Mon 07:00 AM  43.7°F  44°F  calm  1 mph  6 mph  0.00"  97%  92%  43°F  42°F  30.24"
3Mon 06:13 AM  42.4°F  44°F  calm  1 mph  none  ----  97%  92%  42°F  41°F  30.24"
Mon 06:00 AM  42.7°F  44°F  calm  1 mph  2 mph  0.00"  97%  92%  42°F  42°F  30.25"
Mon 05:00 AM  43.5°F  44°F  calm  1 mph  none  0.00"  96%  91%  42°F  42°F  30.24"
Mon 04:00 AM  45.2°F  45°F  calm  1 mph  none  0.00"  96%  91%  44°F  42°F  30.25"
Mon 03:00 AM  45.4°F  45°F  calm  1 mph  5 mph  0.00"  96%  90%  44°F  42°F  30.25"
Mon 02:00 AM  46.1°F  46°F  calm  1 mph  5 mph  0.00"  96%  89%  45°F  43°F  30.27"
Mon 01:00 AM  47.2°F  47°F  calm  1 mph  7 mph  0.00"  96%  88%  46°F  43°F  30.27"
Mon 12:00 AM  47.7°F  47°F  calm  1 mph  4 mph  0.00"  95%  88%  46°F  44°F  30.27"
Sun 11:00 PM  48.9°F  48°F  calm  1 mph  2 mph  0.00"  94%  86%  47°F  44°F  30.27"
Sun 10:00 PM  50.3°F  49°F  calm  2 mph  3 mph  0.00"  91%  85%  48°F  45°F  30.27"
Sun 09:00 PM  52.3°F  50°F  calm  2 mph  7 mph  0.00"  87%  82%  48°F  45°F  30.27"
Sun 08:00 PM  53.2°F  52°F  2 mph NW  3 mph  11 mph  0.00"  87%  80%  49°F  45°F  30.25"
Sun 07:00 PM  55.7°F  53°F  2 mph SW  4 mph  9 mph  0.00"  84%  76%  51°F  46°F  30.24"
Sun 06:00 PM  57.8°F  56°F  calm  4 mph  5 mph  0.00"  74%  72%  49°F  46°F  30.24"
Sun 05:00 PM  61.1°F  58°F  2 mph NW  5 mph  8 mph  0.00"  67%  66%  50°F  47°F  30.24"
Sun 04:00 PM  63.4°F  61°F  3 mph NW  6 mph  9 mph  0.00"  62%  59%  50°F  46°F  30.24"
Sun 03:00 PM  64.1°F  63°F  3 mph SE  5 mph  8 mph  0.00"  62%  55%  50°F  46°F  30.24"
Sun 02:00 PM  62.7°F  64°F  calm  5 mph  6 mph  0.00"  66%  53%  51°F  46°F  30.25"
Sun 01:00 PM  59.3°F  64°F  1 mph S  5 mph  7 mph  0.00"  75%  53%  51°F  46°F  30.27"
Sun 12:00 PM  57.6°F  63°F  calm  4 mph  none  0.00"  81%  56%  51°F  46°F  30.31"
Sun 11:00 AM  57.0°F  60°F  calm  4 mph  8 mph  0.00"  80%  61%  51°F  47°F  30.31"
Sun 10:00 AM  56.2°F  57°F  6 mph SW  3 mph  11 mph  0.00"  83%  71%  51°F  47°F  30.31"
Sun 09:00 AM  57.6°F  52°F  5 mph SE  2 mph  8 mph  0.00"  81%  81%  52°F  46°F  30.30"
Sun 08:00 AM  55.0°F  48°F  calm  1 mph  3 mph  0.00"  86%  89%  51°F  44°F  30.29"
Sun 07:00 AM  52.6°F  44°F  calm  1 mph  none  0.00"  90%  92%  50°F  42°F  30.26"
Sun 06:00 AM  51.9°F  44°F  calm  1 mph  none  0.00"  92%  92%  50°F  41°F  30.24"
Sun 05:00 AM  51.9°F  44°F  calm  1 mph  8 mph  0.00"  93%  91%  50°F  42°F  30.21"
Sun 04:00 AM  51.0°F  45°F  1 mph NE  1 mph  none  0.00"  94%  90%  49°F  42°F  30.19"
Sun 03:00 AM  51.8°F  45°F  calm  1 mph  3 mph  0.00"  93%  90%  50°F  42°F  30.18"
Sun 02:00 AM  51.8°F  46°F  calm  1 mph  none  0.00"  93%  89%  50°F  43°F  30.19"
Sun 01:00 AM  52.0°F  47°F  calm  1 mph  none  0.00"  92%  88%  50°F  43°F  30.18"

  1. Current weather data. No green row appears if the current weather data is also the high or low for the current day.
  2. High temperature for the current day.
  3. Low temperature for the current day.

The Murrieta weather pages are a service of WeatherCurrents. Murrieta, California is located in the Temecula Valley, in southwestern Riverside County, at the junctions of the Interstate 15 and 215 highways.
Copyright ©2020  WeatherCurrents. All rights reserved. - Submit questions and comments - Privacy Policy

This page automatically refreshes every 10 minutes.